Hlavní strana
METAR-TAF:

METAR-TAF

Letiště :

Maputo, Mosambik

zeměpisná šířka: 25-55S, zeměpisná délka: 032-34E, výška: 39 m

Aktuální stav počasí

Zpráva byla vytvořena před 51 minutami, v 17:00 UTC
Východoseverovýchodní vítr 5 kt
Teplota 24°C
Vlhkost vzduchu 83%
Tlak 1017 hPa
Viditelnost 10 km a více
Skoro jasno ve výšce 2500 ft

METAR: FQMA 241700Z 07005KT 9999 FEW025 24/21 Q1017 NOSIG

Čas: 19:51 (17:51 UTC)


TAF: chybějící

Stav a předpovědi počasí z více než 4 000 letišť (zprávy METAR a TAF).

Červené a žluté tečky na mapě představují dostupné meteorologické stanice.

Když kurzor umístíte na tečku, zobrazí se název stanice.

Pak kliknutím zobrazíte stav a předpověď počasí.

Chcete-li změnit mapu, kliknutím na zelené tlačítko se znaménkem +mapu přiblížíte, kliknutím na zelené tlačítko se znaménkem – mapu oddálíte a kliknutím na zelené šipky přejdete na sousední mapy.


METAR-TAF: